Decoded Metar for OIAG (AGHAJARI in IRAN) (IATA:N/A) | Meteo·Mobile Aviation Weather
aviador You're here:

OIAG Decoded Metar

AGHAJARI in IRAN
Report Time2019-03-21 01:00:00
UTC Time2019-03-21 01:17:52
Flight Rules vfr VFR
Wind020° at 10 kt
W.Decomp.*RWY 31: 3.9 kt HW 9.2 kt RCW
W.Rank020° ranks 30
Current wind is above 020° avg. (5.5)
Visibility9999 m
Phenomena:N/A
Clouds:N/A
Expected CloudBase > 5,200 ft AGL from Temp-Dew spread
CeilingNone
Temp18°C (ISA +3)
Dew Point05°C (43% RH)
AAT13.3°C
QNH1013 hPa
Density Alt591 ft
Elevation95 ft
Report Wrong Elevation
Raw Report
METAR OIAG 210100Z 02010KT CAVOK 18/05 Q1013=

Extra information for OIAG:More info

Metar Taf Metar & Taf Last 4 Metars F.Rules Stats Wind Profile Meteogram Temp Stats Airport Information Weather charts Add Link Nearby VenuesMetar ALERT Operation Metar Decoded Social comments